Tiempo atmosférico en la estación meteorológica de Talavera De La Reina, Toledo (372 m.)



Fecha
DESCASC
Temp. máxima en grados centígrados (hora)
DESCASC
Temp. mínima en grados centígrados (hora)
DESCASC
Temp. media en grados centígrados
DESCASC
Racha de viento máxima en m/sg (hora)
DESCASC
Velocidad máxima media en intervalos de 10 minutos(hora)
DESCASC
Precipitaciones diarias en mm
DESCASC
Precipitaciones de 00:00 a 06:00 en mm
DESCASC
Precipitaciones de 06:00 a 12:00 en mm
DESCASC
Precipitaciones de 12:00 a 18:00 en mm
DESCASC
Precipitaciones de 18:00 a 24:00 en mm
DESCASC
08-12-2019 9.7 (16:30) 2.2 (02:40) 5.9 5 (09:10) 3.06 (11:00) 1 0 0 0.8 0.2
07-12-2019 14.1 (15:40) 3.2 (07:10) 8.7 4.72 (12:00) 2.78 (11:50) 0 0 0 0 0
06-12-2019 15.1 (14:40) 5.3 (23:50) 10.2 8.61 (01:50) 5 (02:00) 0 0 0 0 0
05-12-2019 15 (14:40) 5.6 (00:00) 10.3 10.56 (12:40) 6.11 (13:30) 0 0 0 0 0
04-12-2019 10.6 (15:10) 5.8 (09:00) 8.2 4.44 (04:40) 2.22 (16:50) 0.4 0 0.2 0 0.2
03-12-2019 11 (15:40) 5.6 (00:00) 8.3 9.72 (01:20) 5.83 (02:00) 0 0 0 0 0
02-12-2019 13.8 (15:40) 8 (00:00) 10.9 12.78 (14:00) 6.67 (15:50) 5.4 5.4 0 0 0
01-12-2019 10.7 (14:00) 8 (00:00) 9.3 7.5 (17:30) 3.89 (17:30) 12 0 4.2 6.8 1
30-11-2019 16.2 (12:40) 10.2 (00:00) 13.2 9.72 (15:10) 5 (12:50) 4.6 0 0 0.6 4
29-11-2019 16.6 (14:10) 12.9 (00:00) 14.8 10 (13:10) 7.22 (13:30) 0 0 0 0 0
28-11-2019 14.9 (14:50) 9.2 (03:00) 12 10.28 (17:10) 6.94 (17:10) 0 0 0 0 0
27-11-2019 14.7 (13:40) 9.5 (00:00) 12.1 12.78 (13:20) 8.89 (13:20) 0.4 0.2 0.2 0 0
26-11-2019 15.5 (14:20) 9.3 (00:00) 12.4 11.11 (23:59) 6.39 (21:50) 5.2 0 0.2 4.4 0.6
25-11-2019 17.4 (15:30) 9.7 (23:59) 13.5 12.5 (15:30) 8.89 (15:30) 6.2 5.8 0.4 0 0
24-11-2019 13.6 (16:30) 0.7 (00:00) 7.2 10 (17:20) 6.67 (17:20) 0.2 0 0 0 0.2
23-11-2019 15.9 (16:00) 7.2 (00:00) 11.5 17.22 (04:10) 11.11 (04:20) 0 0 0 0 0
22-11-2019 14.6 (16:40) 7.9 (00:00) 11.3 18.61 (23:59) 11.11 (23:59) 9.4 0 3.4 5 1
21-11-2019 12.9 (17:10) 6.9 (00:00) 9.9 6.39 (16:30) 3.89 (16:30) 2.2 0.6 1.4 0.2 0
20-11-2019 8.2 (16:10) 4.6 (03:10) 6.4 5 (10:10) 2.5 (10:10) 7.2 0 0.2 4 3
19-11-2019 13.4 (15:50) 0.1 (00:00) 6.7 4.72 (15:20) 2.5 (02:10) 0 0 0 0 0
18-11-2019 15.4 (16:00) 2.2 (00:00) 8.8 6.67 (17:30) 3.61 (17:30) 0.2 0 0 0 0.2
17-11-2019 9.6 (18:10) -1.4 (-00:0) 4.1 6.67 (10:30) 3.89 (10:20) 3.4 0 0 1 2.4
16-11-2019 14 (14:50) -2.1 (-00:0) 6 9.72 (16:10) 6.11 (15:50) 0 0 0 0 0
15-11-2019 13.9 (15:20) 1.9 (00:00) 7.9 11.67 (01:10) 6.67 (01:20) 0 0 0 0 0
14-11-2019 13.4 (15:00) 8.7 (00:00) 11 21.39 (16:20) 13.33 (16:10) 0 0 0 0 0
13-11-2019 21.4 (14:00) 12.4 (00:00) 16.9 16.67 (06:20) 9.72 (07:20) 0 0 0 0 0
12-11-2019 15.4 (15:30) 3.5 (00:00) 9.4 11.11 (23:10) 6.94 (23:50) 0 0 0 0 0

Gráficas

Temp. máximas Temp. mínimas Temp. medias Precipitaciones Rachas de viento máximas Velocidades máximas media en intervalos de 10 minutos

Datos horarios

Fecha y hora oficial Temperatura (ºC) Velocidad del viento (km/h) Dirección del viento Racha (km/h) Dirección de racha Precipitación (mm) Presión (hPa) Tendencia (hPa) Humedad (%)
2019-12-11 23:00:00 3.1 4 Oeste 11 Oeste 0 982.4 0 91
2019-12-11 22:00:00 3.3 2 Oeste 9 Oeste 0 982.5 0.8 90
2019-12-11 21:00:00 4.6 5 Este 8 Norte 0 982.8 1.9 91
2019-12-11 20:00:00 6 2 Norte 8 Sudeste 0 982.4 1.9 89
2019-12-11 19:00:00 7.9 0 Calma 8 Sudeste 0 981.7 1.6 88
2019-12-11 18:00:00 10.8 3 Nordeste 6 Nordeste 0 980.9 1 82
2019-12-11 17:00:00 12 2 Este 6 Noroeste 0 980.5 0.5 79
2019-12-11 16:00:00 11.4 2 Este 10 Sur 0 980.1 -0.2 85
2019-12-11 15:00:00 10 2 Sur 9 Sudoeste 0 979.9 -1.4 91
2019-12-11 14:00:00 8.6 5 Sudoeste 10 Sur 0 980 -1.3 94
2019-12-11 13:00:00 7.3 5 Oeste 12 Oeste 0 980.3 -0.5 94
2019-12-11 12:00:00 6.3 6 Noroeste 12 Oeste 0 981.3 0.7 94
2019-12-11 11:00:00 5.9 6 Oeste 14 Sudoeste 0 981.3 1 94
2019-12-11 10:00:00 5.4 8 Sudoeste 14 Oeste 0 980.8 0.6 94
2019-12-11 09:00:00 5.3 8 Oeste 11 Oeste 0 980.6 0.3 94
2019-12-11 08:00:00 5 3 Oeste 8 Oeste 0 980.3 -0.6 94
2019-12-11 07:00:00 4.7 4 Sudoeste 8 Sur 0 980.2 -1.2 94
2019-12-11 06:00:00 4.6 5 Sudoeste 7 Sudoeste 0 980.3 -1 94
2019-12-11 05:00:00 4.6 4 Oeste 12 Oeste 0 980.9 -1.4 94
2019-12-11 04:00:00 4.4 8 Oeste 13 Sudoeste 0 981.4 -1.1 94
2019-12-11 03:00:00 3.8 4 Sudoeste 8 Sudoeste 0 981.3 -1.1 94
2019-12-11 02:00:00 3.1 6 Oeste 12 Oeste 0 982.3 -0.5 94
2019-12-11 01:00:00 3.1 3 Sudoeste 8 Noroeste 0 982.5 -0.7 93
2019-12-11 00:00:00 2.3 0 Calma 4 Sudoeste 0 982.4 -0.7 93
2019-12-10 23:00:00 2.8 3 Noroeste 5 Oeste 0 982.8 -0.4 92
2019-12-10 22:00:00 3.5 3 Oeste 4 Noroeste 0 983.2 0 91
2019-12-10 21:00:00 4.8 3 Sudoeste 6 Sur 0 983.1 -0.5 90
2019-12-10 20:00:00 5.8 4 Oeste 5 Noroeste 0 983.2 -0.4 89
2019-12-10 19:00:00 7 2 Oeste 5 Sudeste 0 983.2 -0.8 86
2019-12-10 18:00:00 7.9 3 Nordeste 9 Nordeste 0 983.6 -1 83
2019-12-10 17:00:00 8.4 6 Nordeste 9 Este 0 983.6 -1.6 80
2019-12-10 16:00:00 8.1 5 Este 12 Nordeste 0 984 -1.9 78
2019-12-10 15:00:00 8.1 5 Nordeste 18 Nordeste 0 984.6 -2.1 80
2019-12-10 14:00:00 7.3 5 Nordeste 14 Sudeste 0 985.2 -2.2 83
2019-12-10 13:00:00 6.8 8 Nordeste 17 Sudeste 0 985.9 -1.1 86
2019-12-10 12:00:00 6.7 7 Este 15 Sudeste 0 986.7 0.1 86
2019-12-10 11:00:00 6.2 8 Nordeste 14 Este 0 987.4 1 88
2019-12-10 10:00:00 5.8 7 Este 14 Este 0 987 0.5 89
2019-12-10 09:00:00 5.7 7 Este 19 Nordeste 0 986.6 -0.1 89
2019-12-10 08:00:00 6 12 Este 23 Este 0 986.4 -0.2 90
2019-12-10 07:00:00 6.8 12 Este 22 Este 0 986.5 0 90
2019-12-10 06:00:00 7.1 10 Este 19 Sudeste 0 986.7 -0.2 91
2019-12-10 05:00:00 7 5 Este 14 Nordeste 0 986.6 -0.4 93
2019-12-10 04:00:00 7 9 Este 14 Este 0 986.5 -0.8 93
2019-12-10 03:00:00 7.7 7 Este 14 Este 0 986.9 -0.3 92
2019-12-10 02:00:00 8 7 Este 13 Este 0 987 0.1 92
2019-12-10 01:00:00 8.2 5 Este 10 Este 0 987.3 0.6 92
2019-12-10 00:00:00 8.5 6 Este 12 Este 0 987.2 0.6 92
2019-12-09 23:00:00 8.5 6 Nordeste 11 Nordeste 0 986.9 0.4 93
2019-12-09 22:00:00 7.8 4 Este 10 Sudeste 0 986.7 0.8 92
2019-12-09 21:00:00 9.4 4 Oeste 13 Oeste 0.2 986.6 1 91
2019-12-09 20:00:00 9.4 6 Noroeste 14 Norte 0 986.5 0.8 92
2019-12-09 19:00:00 9.5 6 Oeste 21 Noroeste 0 985.9 0.5 93
2019-12-09 18:00:00 9.7 13 Noroeste 22 Oeste 0 985.6 0 92
2019-12-09 17:00:00 9.9 13 Oeste 23 Noroeste 0 985.7 -0.3 92
2019-12-09 16:00:00 10.4 12 Oeste 24 Noroeste 0 985.4 -1.4 91
2019-12-09 15:00:00 10.2 15 Oeste 25 Oeste 0 985.6 -1.8 92
2019-12-09 14:00:00 10.3 9 Oeste 17 Noroeste 0 986 -1.3 92
2019-12-09 13:00:00 10.4 8 Noroeste 13 Oeste 0 986.8 0.4 92
2019-12-09 12:00:00 10.1 4 Sudoeste 9 Oeste 0 987.4 1.9 93
2019-12-09 11:00:00 9.5 0 Calma 5 Nordeste 0 987.3 2.3 94
2019-12-09 10:00:00 9.3 2 Nordeste 8 Este 0 986.4 1.9 94
2019-12-09 09:00:00 9 5 Este 8 Nordeste 0 985.5 1.2 94
2019-12-09 08:00:00 8.8 3 Este 8 Nordeste 0 985 0.9 94
2019-12-09 07:00:00 9 4 Este 10 Nordeste 0 984.5 0.4 94
2019-12-09 06:00:00 9 8 Nordeste 13 Nordeste 0 984.3 0.6 94
2019-12-09 05:00:00 9.8 4 Este 7 Este 0 984.1 0.6 94
2019-12-09 04:00:00 9.9 2 Sudeste 6 Este 0 984.1 0.7 94
2019-12-09 03:00:00 9.7 3 Este 5 Este 0 983.7 0.2 94
2019-12-09 02:00:00 9.3 3 Nordeste 5 Este 0 983.5 0.1 94
2019-12-09 01:00:00 9.2 2 Sur 7 Sudoeste 0 983.4 0.2 93
2019-12-09 00:00:00 9.2 4 Sudoeste 8 Oeste 0 983.5 0.4 93
2019-12-08 23:00:00 9.2 2 Nordeste 10 Sur 0 983.4 0.6 93
2019-12-08 22:00:00 9.1 4 Sur 9 Sudoeste 0.2 983.2 1.2 93
2019-12-08 21:00:00 9 2 Oeste 6 Sudoeste 0 983.1 0.9 93
2019-12-08 20:00:00 8.8 2 Oeste 7 Nordeste 0 982.8 0.9 93
2019-12-08 19:00:00 9.1 4 Sudoeste 7 Oeste 0 982 -0.2 93
2019-12-08 18:00:00 9.3 0 Calma 6 Norte 0.2 982.2 0.3 92
2019-12-08 17:00:00 9.6 3 Sudoeste 8 Sudoeste 0.6 981.9 -0.3 91
2019-12-08 16:00:00 9.6 0 Calma 5 Sudeste 0 982.2 -0.6 89
2019-12-08 15:00:00 8.9 0 Calma 7 Noroeste 0 981.9 -1.5 91
2019-12-08 14:00:00 7.4 3 Nordeste 10 Este 0 982.2 -1.5 94
2019-12-08 13:00:00 6.4 5 Este 11 Este 0 982.8 -0.5 94
2019-12-08 12:00:00 5.6 7 Nordeste 17 Este 0 983.4 0.7 94
2019-12-08 11:00:00 5.1 11 Este 17 Este 0 983.7 1.3 94
2019-12-08 10:00:00 4.4 10 Este 18 Este 0 983.3 1.7 94
2019-12-08 09:00:00 3.8 10 Este 17 Este 0 982.7 0.9 94
2019-12-08 08:00:00 3.5 8 Nordeste 17 Este 0 982.4 0.5 94
2019-12-08 07:00:00 3.7 8 Este 12 Este 0 981.6 -0.5 94
2019-12-08 06:00:00 3.5 5 Nordeste 9 Nordeste 0 981.8 -0.4 94
2019-12-08 05:00:00 3.5 6 Este 9 Este 0 981.9 -0.4 94
2019-12-08 04:00:00 2.8 4 Este 13 Este 0 982.1 -0.5 93
2019-12-08 03:00:00 2.3 3 Este 6 Este 0 982.2 -0.3 92
2019-12-08 02:00:00 2.6 3 Norte 5 Norte 0 982.3 0 91
2019-12-08 01:00:00 3.2 0 Calma 4 Sudeste 0 982.6 0.8 91
2019-12-08 00:00:00 3.9 0 Calma 6 Este 0 982.5 1 91
2019-12-07 23:00:00 4.3 3 Nordeste 4 Nordeste 0 982.3 1.2 90
2019-12-07 22:00:00 5.3 0 Calma 5 Noroeste 0 981.8 1.4 89
2019-12-07 21:00:00 6.3 0 Calma 4 Este 0 981.5 1.3 88
2019-12-07 20:00:00 7.8 3 Este 4 Norte 0 981.1 1 85
2019-12-07 19:00:00 9.6 2 Este 5 Nordeste 0 980.4 0.6 79
2019-12-07 18:00:00 12 4 Este 8 Sudeste 0 980.2 0.3 72
2019-12-07 17:00:00 13.9 5 Este 9 Este 0 980.1 -0.4 61
2019-12-07 16:00:00 13.8 4 Este 15 Sudeste 0 979.8 -1.6 63
2019-12-07 15:00:00 13.3 5 Este 13 Sudeste 0 979.9 -2 65
2019-12-07 14:00:00 12.3 7 Este 16 Este 0 980.5 -1.3 69
2019-12-07 13:00:00 11.1 9 Este 17 Este 0 981.4 -0.2 75
2019-12-07 12:00:00 9.8 10 Este 17 Este 0 981.9 0.7 80
2019-12-07 11:00:00 7.7 8 Este 13 Este 0 981.8 0.8 86
2019-12-07 10:00:00 5.3 4 Este 12 Este 0 981.6 1 92
2019-12-07 09:00:00 3.5 7 Nordeste 14 Nordeste 0 981.2 0.9 92
2019-12-07 08:00:00 3.5 6 Este 11 Nordeste 0 981 0.8 92
2019-12-07 07:00:00 3.3 6 Este 13 Nordeste 0 980.6 0.2 92
2019-12-07 06:00:00 4 8 Este 12 Este 0 980.3 0.3 92
2019-12-07 05:00:00 3.9 5 Este 9 Nordeste 0 980.2 0.2 91
2019-12-07 04:00:00 4.6 6 Este 9 Este 0 980.4 0.1 91
2019-12-07 03:00:00 5 5 Este 12 Nordeste 0 980 -0.4 90
2019-12-07 02:00:00 5.1 8 Nordeste 10 Nordeste 0 980 -0.1 91
2019-12-07 01:00:00 5.3 6 Nordeste 10 Nordeste 0 980.3 0.6 91
2019-12-07 00:00:00 5.4 5 Sudeste 8 Sudeste 0 980.4 1.1 88
2019-12-06 23:00:00 6.3 3 Este 9 Este 0 980.1 1.2 87
2019-12-06 22:00:00 7.2 5 Este 9 Este 0 979.7 1.3 85
2019-12-06 21:00:00 8.1 4 Este 10 Este 0 979.3 1.3 82
2019-12-06 20:00:00 9.3 5 Este 8 Este 0 978.9 1 80
2019-12-06 19:00:00 10.8 3 Nordeste 11 Sudeste 0 978.4 0.5 68
2019-12-06 18:00:00 13.2 7 Sudeste 19 Este 0 978 -0.3 59
2019-12-06 17:00:00 14.5 12 Sudeste 24 Sudeste 0 977.9 -1 54
2019-12-06 16:00:00 14.8 15 Sudeste 31 Sudeste 0 977.9 -1.6 53
2019-12-06 15:00:00 14.8 16 Este 28 Este 0 978.3 -1.7 53
2019-12-06 14:00:00 14.5 15 Este 27 Sudeste 0 978.9 -1.4 55
2019-12-06 13:00:00 13.9 11 Este 24 Este 0 979.5 -0.4 60
2019-12-06 12:00:00 12.3 11 Este 19 Este 0 980 0.8 66
2019-12-06 11:00:00 10.7 8 Este 15 Este 0 980.3 1.4 71
2019-12-06 10:00:00 9.5 7 Este 15 Nordeste 0 979.9 1.3 77
2019-12-06 09:00:00 8.6 9 Nordeste 15 Nordeste 0 979.2 1.3 81
2019-12-06 08:00:00 9.1 7 Nordeste 11 Nordeste 0 978.9 1.1 80
2019-12-06 07:00:00 8.7 4 Nordeste 8 Este 0 978.6 0.8 82
2019-12-06 06:00:00 8.2 3 Este 10 Nordeste 0 977.9 0.2 81
2019-12-06 05:00:00 9.3 4 Este 17 Este 0 977.8 0.2 74
2019-12-06 04:00:00 10.3 6 Sudeste 15 Este 0 977.8 -0.1 70
2019-12-06 03:00:00 9.7 9 Este 26 Este 0 977.7 -0.2 71
2019-12-06 02:00:00 11 18 Este 31 Sudeste 0 977.6 0 66
2019-12-06 01:00:00 11.5 13 Sudeste 26 Sudeste 0 977.9 0.9 64
2019-12-06 00:00:00 11.7 14 Este 24 Este 0 977.9 1.4 63
2019-12-05 23:00:00 12 12 Este 25 Este 0 977.6 2 62
2019-12-05 22:00:00 11.5 10 Este 18 Este 0 977 2.1 65
2019-12-05 21:00:00 11.1 9 Este 19 Este 0 976.5 2 66
2019-12-05 20:00:00 11.8 9 Este 22 Este 0 975.6 1.6 63
2019-12-05 19:00:00 12.5 10 Este 21 Este 0 974.9 0.9 62
2019-12-05 18:00:00 13 7 Este 21 Este 0 974.5 0.5 60
2019-12-05 17:00:00 14.2 12 Este 22 Nordeste 0 974 0 55
2019-12-05 16:00:00 14.2 10 Este 24 Este 0 974 -0.6 54
2019-12-05 15:00:00 14.2 15 Este 32 Este 0 974 -0.9 52
2019-12-05 14:00:00 14 19 Este 36 Este 0 974 -0.5 54
2019-12-05 13:00:00 13.7 17 Este 38 Este 0 974.6 1 56
2019-12-05 12:00:00 12.6 14 Este 28 Sudeste 0 974.9 2 70
2019-12-05 11:00:00 10 6 Sudeste 17 Sudeste 0 974.5 2.3 80
2019-12-05 10:00:00 7.1 6 Nordeste 12 Nordeste 0 973.6 2.1 93
2019-12-05 09:00:00 5.6 3 Nordeste 7 Nordeste 0 972.9 1.9 92
2019-12-05 08:00:00 6.5 0 Calma 5 Sudeste 0 972.2 1.7 92
2019-12-05 07:00:00 6.8 2 Nordeste 6 Nordeste 0 971.5 0.9 93
2019-12-05 06:00:00 6.5 4 Nordeste 9 Nordeste 0 971 1.2 93
2019-12-05 05:00:00 6.2 4 Este 11 Nordeste 0 970.5 1.1 93
2019-12-05 04:00:00 6.7 6 Este 9 Este 0 970.6 1.4 92
2019-12-05 03:00:00 7.4 0 Calma 6 Sudoeste 0 969.8 1.1 91
2019-12-05 02:00:00 7.2 3 Sudoeste 6 Sudoeste 0 969.4 1.1 92
2019-12-05 01:00:00 7.1 4 Sudoeste 8 Sudoeste 0 969.2 1.3 92
2019-12-05 00:00:00 6.5 3 Oeste 8 Noroeste 0 968.7 1.1 91
2019-12-04 23:00:00 6.9 5 Oeste 11 Oeste 0 968.3 1 90
2019-12-04 22:00:00 8 5 Sudoeste 10 Sudoeste 0 967.9 0.8 88
2019-12-04 21:00:00 8.6 6 Sur 10 Sudoeste 0 967.6 1 87
2019-12-04 20:00:00 9.1 4 Sudoeste 10 Sudoeste 0 967.3 1.2 85
2019-12-04 19:00:00 9.2 2 Noroeste 9 Norte 0.2 967.1 1.5 83
2019-12-04 18:00:00 9.5 5 Noroeste 10 Noroeste 0 966.6 0.7 84
2019-12-04 17:00:00 10.1 7 Oeste 10 Oeste 0 966.1 -0.3 82
2019-12-04 16:00:00 10.4 7 Oeste 10 Noroeste 0 965.6 -1.1 79
2019-12-04 15:00:00 10.5 2 Sudoeste 6 Nordeste 0 965.9 -1.8 77
2019-12-04 14:00:00 9.8 4 Nordeste 6 Nordeste 0 966.4 -1.6 79
2019-12-04 13:00:00 9.3 2 Norte 10 Nordeste 0 966.7 -0.9 80
2019-12-04 12:00:00 8.3 5 Nordeste 10 Este 0.2 967.7 0.2 85
2019-12-04 11:00:00 8.3 6 Nordeste 13 Este 0 968 0.1 78
2019-12-04 10:00:00 7.3 5 Este 11 Este 0 967.6 -0.2 80
2019-12-04 09:00:00 5.9 3 Nordeste 6 Nordeste 0 967.5 -0.3 83
2019-12-04 08:00:00 6.6 0 Calma 5 Nordeste 0 967.9 -0.6 79
2019-12-04 07:00:00 6.7 3 Este 10 Este 0 967.8 -1.2 75
2019-12-04 06:00:00 7 7 Este 14 Este 0 967.8 -1.6 72
2019-12-04 05:00:00 7.3 6 Este 16 Este 0 968.5 -1.6 70
2019-12-04 04:00:00 8 6 Este 13 Este 0 969 -1.4 72
2019-12-04 03:00:00 7.7 5 Este 9 Este 0 969.4 -1.4 75
2019-12-04 02:00:00 7.9 5 Este 14 Este 0 970.1 -0.7 72
2019-12-04 01:00:00 8.2 6 Este 14 Este 0 970.4 -0.4 71
2019-12-04 00:00:00 8.3 6 Sudeste 12 Sudeste 0 970.8 0.2 70
2019-12-03 23:00:00 8.7 4 Este 10 Nordeste 0 970.8 0.2 78
2019-12-03 22:00:00 8.9 5 Este 9 Este 0 970.8 0.7 75
2019-12-03 21:00:00 9.4 3 Este 4 Nordeste 0 970.6 0.5 73
2019-12-03 20:00:00 9.6 0 Calma 3 Noroeste 0 970.6 0.4 73
2019-12-03 19:00:00 10.1 0 Calma 9 Sudeste 0 970.1 -0.1 63
2019-12-03 18:00:00 10.6 4 Este 18 Este 0 970.1 -0.5 58
2019-12-03 17:00:00 10.9 7 Este 18 Este 0 970.2 -1.2 56
2019-12-03 16:00:00 10.9 11 Este 20 Este 0 970.2 -2.2 52
2019-12-03 15:00:00 10.7 11 Este 24 Este 0 970.6 -2.4 52
2019-12-03 14:00:00 10 10 Este 26 Este 0 971.4 -1.8 53
2019-12-03 13:00:00 9.1 16 Este 31 Sudeste 0 972.4 -0.4 56
2019-12-03 12:00:00 9.2 17 Este 32 Sudeste 0 973 0.2 51
2019-12-03 11:00:00 8.4 16 Este 33 Este 0 973.2 0.5 56
2019-12-03 10:00:00 7.9 19 Este 34 Este 0 972.8 0.3 55
2019-12-03 09:00:00 7.1 15 Este 28 Este 0 972.8 0 59
2019-12-03 08:00:00 7.3 15 Este 27 Este 0 972.7 -0.3 59
2019-12-03 07:00:00 7.5 16 Este 27 Sudeste 0 972.5 -0.7 59
2019-12-03 06:00:00 5.8 9 Este 17 Este 0 972.8 -0.6 72
2019-12-03 05:00:00 6.8 6 Nordeste 21 Sudeste 0 973 -0.4 66
2019-12-03 04:00:00 7.7 13 Este 28 Sudeste 0 973.2 -0.5 61
2019-12-03 03:00:00 8.2 12 Este 33 Este 0 973.4 -0.6 61
2019-12-03 02:00:00 9.1 21 Este 35 Sudeste 0 973.4 -0.5 58
2019-12-03 01:00:00 9.8 17 Este 33 Este 0 973.7 0 55
2019-12-03 00:00:00 9.7 10 Este 27 Sudeste 0 974 0.6 57
2019-12-02 23:00:00 10.2 18 Este 32 Sudeste 0 973.9 1.1 55
2019-12-02 22:00:00 10.8 14 Este 30 Este 0 973.7 1.5 53
2019-12-02 21:00:00 11.5 18 Este 34 Este 0 973.4 1.7 52
2019-12-02 20:00:00 11.6 16 Este 32 Este 0 972.8 1.6 53
2019-12-02 19:00:00 11.7 14 Este 28 Este 0 972.2 1.2 58
2019-12-02 18:00:00 12 15 Este 34 Este 0 971.7 0.7 56
2019-12-02 17:00:00 12.9 18 Este 42 Este 0 971.2 -0.3 52
2019-12-02 16:00:00 13.5 21 Este 43 Este 0 971 -1.1 50
2019-12-02 15:00:00 11.8 21 Este 43 Este 0 971 -1.5 56
2019-12-02 14:00:00 12.4 19 Este 46 Este 0 971.5 -0.3 55
2019-12-02 13:00:00 10.7 19 Este 46 Este 0 972.1 1.1 64
2019-12-02 12:00:00 10.5 21 Este 44 Este 0 972.5 2.2 62
2019-12-02 11:00:00 9.5 22 Este 45 Este 0 971.8 1.9 66
2019-12-02 10:00:00 8.6 17 Este 36 Este 0 971 1.3 70
2019-12-02 09:00:00 8.6 18 Este 36 Este 0 970.3 1.2 72
2019-12-02 08:00:00 8.5 15 Este 37 Este 0 969.9 1.2 76
2019-12-02 07:00:00 8.3 14 Este 41 Este 0 969.7 1.2 84
2019-12-02 06:00:00 8.8 20 Este 44 Este 0 969.1 0.7 82
2019-12-02 05:00:00 8.8 19 Este 39 Este 0.2 968.7 0.4 82
2019-12-02 04:00:00 8.5 18 Este 35 Este 0.6 968.5 0.4 86
2019-12-02 03:00:00 8.4 18 Este 36 Nordeste 2.2 968.4 0.4 88
2019-12-02 02:00:00 8.4 14 Este 31 Este 2.2 968.3 0.5 92
2019-12-02 01:00:00 8 10 Este 21 Este 0.2 968.1 0.5 91
2019-12-02 00:00:00 8.1 10 Nordeste 22 Este 0 968 0.4 87
2019-12-01 23:00:00 8.1 10 Este 23 Este 0.8 967.8 0.4 89
2019-12-01 22:00:00 8.6 11 Este 23 Este 0.2 967.6 0.8 87
2019-12-01 21:00:00 8.7 4 Nordeste 8 Este 0 967.6 0.9 93
2019-12-01 20:00:00 8.3 4 Norte 11 Sudeste 0 967.4 1 92
2019-12-01 19:00:00 9 6 Este 16 Este 0 966.8 0.2 90
2019-12-01 18:00:00 9.3 7 Este 27 Este 0.2 966.7 0.1 91
2019-12-01 17:00:00 9.6 10 Este 22 Nordeste 1.8 966.4 -0.5 92
2019-12-01 16:00:00 10.3 6 Norte 15 Norte 1 966.6 -1 92
2019-12-01 15:00:00 10.4 6 Nordeste 13 Nordeste 2 966.6 -1.9 93
2019-12-01 14:00:00 10.7 9 Este 15 Nordeste 0.2 966.9 -1.7 93
2019-12-01 13:00:00 10 7 Este 10 Este 1.6 967.6 -0.8 93
2019-12-01 12:00:00 9.5 6 Este 15 Este 2 968.5 0.1 93
2019-12-01 11:00:00 9.4 7 Este 14 Nordeste 0.2 968.6 -0.5 93
2019-12-01 10:00:00 8.7 8 Este 13 Este 0.4 968.4 -0.5 93
2019-12-01 09:00:00 8.6 5 Nordeste 8 Nordeste 0.6 968.4 -1.1 93
2019-12-01 08:00:00 8.6 2 Norte 5 Norte 0.8 969.1 -0.8 92
2019-12-01 07:00:00 8.7 4 Oeste 7 Oeste 0.2 968.9 -1.8 91
2019-12-01 06:00:00 8.8 5 Sudoeste 11 Oeste 0 969.5 -1.7 91
2019-12-01 05:00:00 8.8 9 Oeste 15 Oeste 0 969.9 -1.8 90
2019-12-01 04:00:00 8.8 7 Oeste 16 Oeste 0 970.7 -1.3 90
2019-12-01 03:00:00 9.4 12 Oeste 18 Oeste 0 971.2 -0.8 89
2019-12-01 02:00:00 9.4 6 Sudoeste 14 Oeste 0 971.7 -0.2 90
2019-12-01 01:00:00 9.7 6 Oeste 16 Oeste 0 972 -0.2 90
2019-12-01 00:00:00 10.2 6 Oeste 21 Oeste 0 972 -0.2 90
2019-11-30 23:00:00 10.8 12 Oeste 21 Oeste 0 971.9 0 89
2019-11-30 22:00:00 11.4 12 Sudoeste 33 Sudoeste 0.6 972.2 0.1 90
2019-11-30 21:00:00 12.4 16 Sudoeste 28 Sudoeste 1.6 972.2 -0.1 91
2019-11-30 20:00:00 12.7 12 Sudoeste 23 Oeste 1.8 971.9 -1 92
2019-11-30 19:00:00 13.2 13 Oeste 32 Oeste 0 972.1 -1.3 87
2019-11-30 18:00:00 14.2 12 Sudoeste 27 Sudoeste 0 972.3 -1.5 78
2019-11-30 17:00:00 14.3 14 Sudoeste 32 Sudoeste 0.6 972.9 -2.2 80
2019-11-30 16:00:00 14.4 10 Sudoeste 35 Oeste 0 973.4 -2.7 80
2019-11-30 15:00:00 16 18 Sudoeste 34 Oeste 0 973.8 -3.3 65
2019-11-30 14:00:00 15.5 13 Sudoeste 29 Oeste 0 975.1 -2.3 70
2019-11-30 13:00:00 15.9 16 Oeste 29 Oeste 0 976.1 -1.2 67
2019-11-30 12:00:00 15.5 15 Oeste 30 Oeste 0 977.1 0.2 76
2019-11-30 11:00:00 14.5 11 Oeste 17 Oeste 0 977.4 0.4 85
2019-11-30 10:00:00 13.7 8 Oeste 15 Sudoeste 0 977.3 0.4 88
2019-11-30 09:00:00 13.6 13 Oeste 21 Oeste 0 976.9 -0.3 87
2019-11-30 08:00:00 12.4 5 Oeste 9 Oeste 0 977 -0.4 91
2019-11-30 07:00:00 12.6 6 Oeste 12 Oeste 0 976.9 -0.8 90
2019-11-30 06:00:00 13.4 6 Sudoeste 14 Oeste 0 977.2 -0.3 90
2019-11-30 05:00:00 13.9 9 Oeste 18 Oeste 0 977.4 -0.6 89
2019-11-30 04:00:00 13.7 5 Oeste 18 Sudoeste 0 977.7 -0.6 92
2019-11-30 03:00:00 14 7 Sudoeste 12 Oeste 0 977.5 -0.8 87
2019-11-30 02:00:00 13.9 0 Calma 10 Sudoeste 0 978 -0.2 88
2019-11-30 01:00:00 14.3 6 Oeste 10 Oeste 0 978.3 0.3 87
2019-11-30 00:00:00 14.3 5 Oeste 12 Oeste 0 978.3 0.3 87
2019-11-29 23:00:00 14.5 9 Oeste 18 Noroeste 0 978.2 0.3 87
2019-11-29 22:00:00 14.4 8 Oeste 13 Oeste 0 978 0.1 88
2019-11-29 21:00:00 14.4 4 Oeste 7 Sudoeste 0 978 0.4 88
2019-11-29 20:00:00 14.6 4 Sudoeste 13 Sur 0 977.9 0.5 87
2019-11-29 19:00:00 14.6 7 Noroeste 12 Noroeste 0 977.9 0.6 87
2019-11-29 18:00:00 15.4 8 Noroeste 18 Noroeste 0 977.6 0.2 84
2019-11-29 17:00:00 15.9 10 Noroeste 23 Oeste 0 977.4 -0.3 80
2019-11-29 16:00:00 16.1 15 Oeste 31 Oeste 0 977.3 -0.8 79
2019-11-29 15:00:00 16.1 16 Oeste 33 Oeste 0 977.4 -1.1 79
2019-11-29 14:00:00 16.5 23 Oeste 36 Oeste 0 977.7 -0.3 74
2019-11-29 13:00:00 15.8 19 Oeste 32 Oeste 0 978.1 0.7 81
2019-11-29 12:00:00 15.1 19 Oeste 34 Oeste 0 978.5 1.8 83
2019-11-29 11:00:00 14.7 19 Oeste 28 Oeste 0 978 1.9 86
2019-11-29 10:00:00 13.5 18 Oeste 30 Oeste 0 977.4 1.4 90
2019-11-29 09:00:00 13.6 20 Oeste 32 Noroeste 0 976.7 1 88
2019-11-29 08:00:00 13.5 18 Oeste 25 Oeste 0 976.1 0.6 88
2019-11-29 07:00:00 13.5 13 Oeste 22 Oeste 0 976 0.7 87
2019-11-29 06:00:00 13.4 11 Oeste 22 Oeste 0 975.7 0.6 87
2019-11-29 05:00:00 13.6 13 Oeste 22 Oeste 0 975.5 0.7 85
2019-11-29 04:00:00 13.6 18 Oeste 24 Oeste 0 975.3 0.4 86
2019-11-29 03:00:00 12.9 9 Oeste 35 Oeste 0 975.1 0.4 89
2019-11-29 02:00:00 13.4 15 Oeste 28 Sudoeste 0 974.8 0 83
2019-11-29 01:00:00 13.6 15 Oeste 26 Oeste 0 974.9 0.5 82
2019-11-29 00:00:00 13.5 9 Oeste 15 Oeste 0 974.7 0.2 81
2019-11-28 23:00:00 13.2 9 Oeste 21 Oeste 0 974.8 0.5 82
2019-11-28 22:00:00 13.2 15 Oeste 24 Sudoeste 0 974.4 0.8 80
2019-11-28 21:00:00 13.4 7 Oeste 14 Oeste 0 974.5 0.8 80
2019-11-28 20:00:00 13.3 4 Noroeste 14 Sudoeste 0 974.3 0.6 81
2019-11-28 19:00:00 13.4 8 Oeste 18 Oeste 0 973.6 0.4 82
2019-11-28 18:00:00 13.6 12 Oeste 37 Oeste 0 973.7 0.1 81
2019-11-28 17:00:00 14.1 22 Oeste 36 Oeste 0 973.7 -0.4 79
2019-11-28 16:00:00 14.2 17 Oeste 28 Oeste 0 973.2 -1.7 78
2019-11-28 15:00:00 14.6 20 Oeste 32 Oeste 0 973.6 -1.9 76
2019-11-28 14:00:00 13.8 19 Oeste 32 Oeste 0 974.1 -0.9 81
2019-11-28 13:00:00 14 14 Oeste 27 Oeste 0 974.9 0.2 78
2019-11-28 12:00:00 12.9 11 Oeste 23 Sudoeste 0 975.5 1.2 76
2019-11-28 11:00:00 12.6 13 Sudoeste 26 Sudoeste 0 975 1 77
2019-11-28 10:00:00 11.6 10 Oeste 20 Oeste 0 974.7 1.2 83
2019-11-28 09:00:00 11.2 11 Oeste 21 Oeste 0 974.3 1.1 86
2019-11-28 08:00:00 10.9 9 Oeste 20 Oeste 0 974 1 85
2019-11-28 07:00:00 10.8 13 Sudoeste 22 Oeste 0 973.5 0.5 87
2019-11-28 06:00:00 10.2 5 Sudoeste 13 Oeste 0 973.2 0.3 89
2019-11-28 05:00:00 9.8 8 Oeste 16 Oeste 0 973 0.2 89
2019-11-28 04:00:00 9.8 13 Oeste 20 Oeste 0 973 0 88
2019-11-28 03:00:00 9.2 10 Oeste 14 Oeste 0 972.9 0.1 88
2019-11-28 02:00:00 10 5 Sudoeste 10 Sur 0 972.8 0.4 86
2019-11-28 01:00:00 10.4 5 Sudoeste 15 Sudoeste 0 973 1 84
2019-11-28 00:00:00 11.1 8 Oeste 20 Oeste 0 972.8 1.1 81
2019-11-27 23:00:00 11.8 10 Oeste 26 Sudoeste 0 972.4 1 77
2019-11-27 22:00:00 12.2 13 Oeste 24 Sudoeste 0 972 0.9 73
2019-11-27 21:00:00 11.5 12 Oeste 20 Oeste 0 971.7 1.1 80
2019-11-27 20:00:00 12.2 8 Oeste 16 Oeste 0 971.4 1.1 81
2019-11-27 19:00:00 12.1 10 Oeste 21 Oeste 0 971.1 1.1 82
2019-11-27 18:00:00 12.9 15 Oeste 37 Oeste 0 970.6 0.3 78
2019-11-27 17:00:00 13.9 22 Oeste 40 Oeste 0 970.3 -0.2 70
2019-11-27 16:00:00 14.6 25 Oeste 43 Oeste 0 970 -1 68
2019-11-27 15:00:00 14.2 25 Oeste 43 Oeste 0 970.3 -1.4 71
2019-11-27 14:00:00 14 22 Oeste 46 Oeste 0 970.5 -0.7 73
2019-11-27 06:00:00 11.7 17 Oeste 32 Sudoeste 0 968.2 1.2 82
2019-11-27 05:00:00 12.3 14 Oeste 28 Oeste 0 967.9 0.6 88
2019-11-27 04:00:00 12.4 17 Oeste 41 Oeste 0 967.5 0.1 89
2019-11-27 03:00:00 12.7 23 Oeste 43 Oeste 0 967 -0.2 91
2019-11-27 02:00:00 12.9 21 Oeste 43 Oeste 0.2 967.3 0 92
2019-11-27 01:00:00 13.8 23 Oeste 42 Oeste 0 967.4 0 86
2019-11-27 00:00:00 14.1 19 Oeste 40 Oeste 0 967.2 0 83
2019-11-26 23:00:00 13.6 15 Oeste 34 Oeste 0 967.3 0.5 87
2019-11-26 22:00:00 14.2 18 Oeste 37 Oeste 0 967.4 0.6 87
2019-11-26 21:00:00 14.4 20 Oeste 36 Oeste 0.2 967.2 0 89
2019-11-26 20:00:00 13.9 12 Oeste 20 Oeste 0 966.8 -1.1 93
2019-11-26 19:00:00 13.8 6 Oeste 10 Oeste 0.4 966.8 -1.5 93
2019-11-26 18:00:00 13.9 3 Oeste 11 Oeste 0.6 967.2 -1.7 93
2019-11-26 17:00:00 14.1 6 Sudoeste 14 Oeste 1.4 967.9 -2.1 92
2019-11-26 16:00:00 14.6 5 Noroeste 17 Noroeste 2 968.3 -2.5 91
2019-11-26 15:00:00 15.4 8 Noroeste 19 Oeste 0.4 968.9 -3.1 89
2019-11-26 14:00:00 15.1 5 Oeste 13 Oeste 0 970 -2.2 86
2019-11-26 13:00:00 14.1 4 Oeste 15 Oeste 0 970.8 -1.2 91
2019-11-26 12:00:00 13.4 9 Oeste 17 Oeste 0 972 0 91
2019-11-26 11:00:00 13 7 Oeste 14 Noroeste 0 972.2 0.4 93
2019-11-26 10:00:00 12.1 6 Oeste 11 Noroeste 0 972 0 94
2019-11-26 09:00:00 11.7 8 Oeste 16 Oeste 0.2 972 -0.1 94
2019-11-26 08:00:00 11.8 10 Oeste 17 Oeste 0 971.8 -0.7 93
2019-11-26 07:00:00 11.1 4 Oeste 8 Noroeste 0 972 -0.9 93
2019-11-26 06:00:00 11 0 Calma 9 Noroeste 0 972.1 -0.8 93
2019-11-26 05:00:00 11 5 Noroeste 10 Sudoeste 0 972.5 -0.4 91
2019-11-26 04:00:00 11.7 7 Oeste 12 Oeste 0 972.9 -0.5 92
2019-11-26 03:00:00 11.1 7 Sudoeste 13 Sudoeste 0 972.9 -0.4 93
2019-11-26 02:00:00 10.5 2 Sudoeste 6 Oeste 0 972.9 -0.6 93
2019-11-26 01:00:00 9.6 3 Sur 5 Sur 0 973.4 -0.1 93
2019-11-26 00:00:00 9.7 0 Calma 5 Noroeste 0 973.3 0 92
2019-11-25 23:00:00 10.7 2 Sudoeste 5 Sudoeste 0 973.5 0.6 91
2019-11-25 22:00:00 12 3 Oeste 8 Sudoeste 0 973.5 0.8 90
2019-11-25 21:00:00 12.8 4 Oeste 8 Oeste 0 973.3 0.9 89
2019-11-25 20:00:00 13.3 6 Oeste 13 Oeste 0 972.9 1 87
2019-11-25 19:00:00 14.2 9 Oeste 24 Noroeste 0 972.7 1 84
2019-11-25 18:00:00 15.3 16 Oeste 27 Oeste 0 972.4 0.9 80
2019-11-25 17:00:00 16 16 Oeste 38 Oeste 0 971.9 0.2 73
2019-11-25 16:00:00 17.2 26 Oeste 45 Oeste 0 971.7 -0.5 73
2019-11-25 15:00:00 16.2 17 Noroeste 30 Noroeste 0 971.5 -0.9 81
2019-11-25 14:00:00 15.1 13 Noroeste 25 Noroeste 0 971.7 -0.5 89
2019-11-25 13:00:00 14 8 Noroeste 18 Noroeste 0 972.2 0.1 93
2019-11-25 12:00:00 12.7 3 Nordeste 8 Nordeste 0 972.4 0.7 93
2019-11-25 11:00:00 12 3 Este 8 Nordeste 0 972.2 0.8 93
2019-11-25 10:00:00 11.8 4 Este 7 Nordeste 0 972.1 1.1 93
2019-11-25 09:00:00 11.4 2 Este 8 Este 0.2 971.7 0.4 94
2019-11-25 08:00:00 10.9 3 Nordeste 13 Oeste 0 971.4 0.3 94
2019-11-25 07:00:00 10.9 7 Sudoeste 20 Oeste 0.2 971 -0.1 94
2019-11-25 06:00:00 10.8 4 Sudoeste 9 Sudoeste 0.2 971.3 0.1 93
2019-11-25 05:00:00 10.7 3 Oeste 9 Noroeste 1 971.1 -0.7 93
2019-11-25 04:00:00 10.6 4 Noroeste 12 Oeste 1.8 971.1 -1.4 93
2019-11-25 03:00:00 10.5 6 Oeste 13 Noroeste 1.2 971.2 -1.4 93
2019-11-25 02:00:00 10.4 8 Noroeste 15 Noroeste 1.2 971.8 -0.9 93
2019-11-25 01:00:00 10.3 8 Oeste 19 Oeste 0.4 972.5 0.1 93
2019-11-25 00:00:00 10.5 12 Oeste 19 Sudoeste 0.2 972.6 0 91
2019-11-24 23:00:00 11.3 12 Oeste 22 Oeste 0 972.7 -0.1 81
2019-11-24 22:00:00 11.3 12 Oeste 24 Oeste 0 972.4 -0.1 80
2019-11-24 21:00:00 11.4 13 Oeste 24 Oeste 0 972.6 0.1 79
2019-11-24 20:00:00 11.5 8 Sudoeste 19 Sudoeste 0 972.8 0.5 73
2019-11-24 19:00:00 11.6 11 Oeste 22 Oeste 0 972.5 0.2 72
2019-11-24 18:00:00 11.5 16 Oeste 36 Oeste 0 972.5 0.5 67
2019-11-24 17:00:00 12.7 20 Oeste 34 Noroeste 0 972.3 -0.7 60
2019-11-24 16:00:00 13.3 22 Oeste 35 Noroeste 0 972.3 -1.2 57
2019-11-24 15:00:00 13 20 Oeste 34 Oeste 0 972 -2.1 61
2019-11-24 14:00:00 12.1 20 Oeste 33 Oeste 0 973 -0.9 64
2019-11-24 13:00:00 11.1 10 Oeste 17 Oeste 0 973.5 0.1 66
2019-11-24 12:00:00 9 2 Oeste 8 Nordeste 0 974.1 1.5 74
2019-11-24 11:00:00 6.6 6 Nordeste 13 Este 0 973.9 1.5 88
2019-11-24 10:00:00 3.6 2 Este 6 Este 0 973.4 2 93
2019-11-24 09:00:00 1.6 2 Nordeste 5 Este 0 972.6 1.4 92
2019-11-24 08:00:00 1 3 Este 8 Este 0 972.4 1.7 91
2019-11-24 07:00:00 1.5 4 Nordeste 7 Este 0 971.4 1 90
2019-11-24 06:00:00 2.4 3 Noroeste 10 Sudoeste 0 971.2 1 87
2019-11-24 05:00:00 4 3 Sudoeste 9 Sudoeste 0 970.7 0.5 87
2019-11-24 04:00:00 5.9 6 Sudoeste 12 Sudoeste 0 970.4 0.4 84
2019-11-24 03:00:00 6.6 6 Oeste 26 Oeste 0 970.2 0.6 81
2019-11-24 02:00:00 7.3 10 Oeste 14 Oeste 0 970.2 0.9 78
2019-11-24 01:00:00 6.5 2 Sudeste 19 Oeste 0 970 1.1 81
2019-11-24 00:00:00 7.6 9 Sudoeste 22 Oeste 0 969.6 1.6 74
2019-11-23 23:00:00 8.5 14 Oeste 23 Oeste 0 969.3 1.9 69
2019-11-23 22:00:00 9.2 14 Oeste 25 Sudoeste 0 968.9 2.4 65
2019-11-23 21:00:00 9.7 11 Oeste 36 Oeste 0 968 2.7 61
2019-11-23 20:00:00 10.6 9 Sudoeste 28 Oeste 0 967.4 3.1 58
2019-11-23 19:00:00 10.4 12 Oeste 36 Noroeste 0 966.5 2.9 59
2019-11-23 18:00:00 12.5 23 Oeste 43 Oeste 0 965.3 2.8 51
2019-11-23 17:00:00 14.4 24 Oeste 45 Oeste 0 964.3 1.7 44
2019-11-23 16:00:00 15.8 17 Oeste 42 Oeste 0 963.6 1.4 39
2019-11-23 15:00:00 15.1 27 Oeste 48 Oeste 0 962.5 0.7 40
2019-11-23 14:00:00 14 28 Oeste 54 Oeste 0 962.6 1.8 49
2019-11-23 13:00:00 13.4 31 Oeste 46 Oeste 0 962.2 2.7 52
2019-11-23 12:00:00 12.5 28 Oeste 41 Oeste 0 961.8 3.5 54
2019-11-23 11:00:00 11.1 22 Oeste 44 Oeste 0 960.8 3.9 60
2019-11-23 10:00:00 9.1 18 Oeste 29 Oeste 0 959.5 3.9 66
2019-11-23 09:00:00 7.8 12 Oeste 32 Oeste 0 958.3 3.8 70
2019-11-23 08:00:00 7.9 19 Oeste 43 Oeste 0 956.9 2.8 70
2019-11-23 07:00:00 8.4 28 Oeste 54 Noroeste 0 955.6 2 72
2019-11-23 06:00:00 8.8 31 Oeste 54 Oeste 0 954.5 1.5 72
2019-11-23 05:00:00 9.2 31 Oeste 62 Oeste 0 954.1 1.9 74
2019-11-23 04:00:00 9.2 31 Oeste 53 Oeste 0 953.6 1.2 75
2019-11-23 03:00:00 9.3 33 Oeste 51 Oeste 0 953 1.2 82
2019-11-23 02:00:00 10.5 32 Oeste 54 Oeste 0 952.2 0.1 83
2019-11-23 01:00:00 10.5 26 Oeste 54 Oeste 0 952.4 0.3 84
2019-11-23 00:00:00 10.6 40 Oeste 67 Oeste 0.4 951.8 0.1 80
2019-11-22 23:00:00 11.4 22 Oeste 39 Oeste 0 952.1 0.8 78
2019-11-22 22:00:00 11.3 21 Oeste 43 Oeste 0 952.1 1.5 78
2019-11-22 21:00:00 10.5 11 Oeste 33 Oeste 0 951.7 1.9 86
2019-11-22 20:00:00 11.9 26 Oeste 59 Oeste 0.4 951.3 2.4 80
2019-11-22 19:00:00 12.9 15 Oeste 39 Oeste 0.2 950.6 1.1 83
2019-11-22 18:00:00 13.9 25 Oeste 41 Oeste 0 949.8 -0.6 77
2019-11-22 17:00:00 14.3 7 Oeste 22 Oeste 0 948.9 -2.1 90
2019-11-22 16:00:00 13.6 16 Oeste 28 Oeste 0.6 949.5 -3 93
2019-11-22 15:00:00 12.7 14 Oeste 33 Oeste 2.2 950.4 -4.2 93
2019-11-22 14:00:00 12.5 11 Oeste 30 Sudoeste 1.2 951 -4.5 94
2019-11-22 13:00:00 10.9 7 Este 19 Oeste 1 952.5 -4.5 93
2019-11-22 12:00:00 10.2 6 Este 12 Este 0.6 954.6 -3.9 94
2019-11-22 11:00:00 9.6 6 Este 17 Nordeste 0.2 955.5 -3.8 94
2019-11-22 10:00:00 8.4 8 Este 12 Nordeste 0.4 957 -2.7 94
2019-11-22 09:00:00 8.1 6 Nordeste 12 Nordeste 1.2 958.5 -2 93
2019-11-22 08:00:00 8.1 4 Este 11 Este 0.8 959.3 -2.3 93
2019-11-22 07:00:00 8 6 Este 12 Nordeste 0.2 959.7 -2.5 93
2019-11-22 06:00:00 8 7 Este 11 Este 0 960.5 -2 93
2019-11-22 05:00:00 7.9 4 Nordeste 9 Nordeste 0 961.6 -1.2 93
2019-11-22 04:00:00 8.2 4 Este 9 Este 0 962.2 -1.6 93
2019-11-22 03:00:00 8.1 6 Nordeste 13 Nordeste 0 962.5 -1.6 93
2019-11-22 02:00:00 8.3 8 Este 12 Este 0 962.8 -1.6 93
2019-11-22 01:00:00 8 5 Este 10 Nordeste 0 963.8 -1 93
2019-11-22 00:00:00 8.3 7 Este 12 Nordeste 0 964.1 -0.4 92
2019-11-21 23:00:00 8.3 5 Este 10 Nordeste 0 964.4 -0.3 92
2019-11-21 22:00:00 8.9 3 Nordeste 5 Este 0 964.8 0.3 92
2019-11-21 21:00:00 9.1 0 Calma 5 Este 0 964.5 0.5 91
2019-11-21 20:00:00 9.3 3 Sudeste 5 Sudeste 0 964.7 0.6 90
2019-11-21 19:00:00 9.2 0 Calma 7 Noroeste 0 964.5 0.1 88
2019-11-21 18:00:00 11.8 3 Noroeste 14 Oeste 0 964 -0.4 82
2019-11-21 17:00:00 12.8 9 Noroeste 23 Oeste 0 964.1 -0.8 80
2019-11-21 16:00:00 11.5 12 Noroeste 21 Noroeste 0 964.4 -1 87
2019-11-21 15:00:00 10.9 2 Oeste 10 Nordeste 0.2 964.4 -1.5 87
2019-11-21 14:00:00 10 5 Este 12 Este 0 964.9 -0.9 92
2019-11-21 13:00:00 9.1 6 Este 13 Nordeste 0 965.4 -0.3 92
2019-11-21 12:00:00 8.7 8 Este 14 Este 0 965.9 0.5 93
2019-11-21 11:00:00 8 8 Nordeste 14 Nordeste 0.4 965.8 0.8 93
2019-11-21 10:00:00 7.5 7 Este 14 Nordeste 0.8 965.7 0.6 93
2019-11-21 09:00:00 7.2 5 Este 9 Nordeste 0.2 965.4 0.3 93
2019-11-21 08:00:00 -- -- -- -- -- -- -- -- --
2019-11-21 07:00:00 -- -- -- -- -- -- -- -- --
2019-11-21 06:00:00 -- -- -- -- -- -- -- -- --
2019-11-21 05:00:00 -- -- -- -- -- -- -- -- --
2019-11-21 04:00:00 -- -- -- -- -- -- -- -- --
2019-11-21 03:00:00 -- -- -- -- -- -- -- -- --
2019-11-21 02:00:00 -- -- -- -- -- -- -- -- --
2019-11-21 01:00:00 -- -- -- -- -- -- -- -- --
2019-11-21 00:00:00 -- -- -- -- -- -- -- -- --
2019-11-20 23:00:00 -- -- -- -- -- -- -- -- --
2019-11-20 22:00:00 -- -- -- -- -- -- -- -- --
2019-11-20 21:00:00 -- -- -- -- -- -- -- -- --
2019-11-20 20:00:00 -- -- -- -- -- -- -- -- --
2019-11-20 19:00:00 7.5 4 Este 11 Este 3 965.7 -0.3 91
2019-11-20 18:00:00 7.9 4 Este 10 Este 0 965.6 -0.7 90
2019-11-20 17:00:00 8 4 Este 9 Este 0.4 965.7 -1.2 89
2019-11-20 16:00:00 8.1 0 Calma 4 Nordeste 1.4 966 -1.8 90
2019-11-20 15:00:00 8 2 Nordeste 9 Este 0.6 966.3 -2.3 90
2019-11-20 14:00:00 7.8 6 Este 12 Este 0.8 966.9 -1.8 88
2019-11-20 13:00:00 7.4 4 Nordeste 9 Nordeste 0.8 967.8 -0.9 86
2019-11-20 12:00:00 7.4 3 Este 12 Este 0.2 968.6 -0.1 83
2019-11-20 11:00:00 7.6 7 Este 18 Este 0 968.7 0.3 76
2019-11-20 10:00:00 6.4 8 Este 13 Este 0 968.7 0.1 82
2019-11-20 09:00:00 5.2 7 Nordeste 12 Este 0 968.7 -0.2 85
2019-11-20 08:00:00 5.1 7 Este 13 Nordeste 0 968.4 -0.8 86
2019-11-20 07:00:00 4.9 8 Este 13 Nordeste 0 968.6 -1.2 87
2019-11-20 06:00:00 4.6 8 Este 14 Nordeste 0 968.9 -1.2 89
2019-11-20 05:00:00 4.9 7 Este 10 Este 0 969.2 -1.3 89
2019-11-20 04:00:00 4.7 6 Nordeste 10 Nordeste 0 969.8 -1.1 89
2019-11-20 03:00:00 4.8 4 Este 9 Nordeste 0 970.1 -1.3 88
2019-11-20 02:00:00 5.3 4 Este 6 Nordeste 0 970.5 -1.5 88
2019-11-20 01:00:00 5.6 4 Nordeste 8 Este 0 970.9 -1.3 87
2019-11-20 00:00:00 6.1 2 Sudeste 4 Sudeste 0 971.4 -0.7 86
2019-11-19 23:00:00 5.9 0 Calma 5 Oeste 0 972 -0.1 86
2019-11-19 22:00:00 5.8 3 Oeste 5 Oeste 0 972.2 0.2 85
2019-11-19 21:00:00 5.5 0 Calma 6 Sur 0 972.1 0.3 84
2019-11-19 20:00:00 6.4 2 Noroeste 6 Oeste 0 972.1 0.1 75
2019-11-19 19:00:00 8.1 5 Oeste 10 Noroeste 0 972 -0.1 69
2019-11-19 18:00:00 10.2 7 Oeste 13 Noroeste 0 971.8 -0.9 61
2019-11-19 17:00:00 12 6 Noroeste 14 Noroeste 0 972 -1.4 55
2019-11-19 16:00:00 12.9 8 Oeste 17 Oeste 0 972.1 -2.4 51
2019-11-19 15:00:00 12.2 8 Oeste 17 Oeste 0 972.7 -2.7 51
2019-11-19 14:00:00 11.2 3 Sudoeste 10 Sudeste 0 973.4 -2.2 52
2019-11-19 13:00:00 8.4 7 Este 13 Este 0 974.5 -1.1 66
2019-11-19 12:00:00 6.3 8 Este 17 Este 0 975.4 0 76
2019-11-19 11:00:00 4.4 6 Este 13 Este 0 975.6 0.5 84
2019-11-19 10:00:00 2.9 8 Este 13 Este 0 975.6 0.8 86
2019-11-19 09:00:00 0.9 6 Este 11 Nordeste 0 975.4 0.9 89
2019-11-19 08:00:00 0.5 5 Este 12 Nordeste 0 975.1 0.4 90
2019-11-19 07:00:00 0.1 6 Este 11 Nordeste 0 974.8 0.2 89
2019-11-19 06:00:00 0.4 5 Este 10 Este 0 974.5 -0.4 89
2019-11-19 05:00:00 0.8 5 Este 12 Nordeste 0 974.7 -0.2 89
2019-11-19 04:00:00 1.2 5 Este 10 Este 0 974.6 -0.4 87
2019-11-19 03:00:00 1.4 5 Este 15 Nordeste 0 974.9 -0.1 88
2019-11-19 02:00:00 1.9 9 Nordeste 15 Nordeste 0 974.9 -0.1 88
2019-11-19 01:00:00 2.3 3 Este 8 Este 0 975 0.3 86
2019-11-19 00:00:00 2.4 3 Nordeste 9 Este 0 975 0.6 86
2019-11-18 23:00:00 2.5 2 Este 6 Norte 0 975 1.1 86
2019-11-18 22:00:00 4 3 Norte 7 Sudoeste 0 974.7 1.5 82
2019-11-18 21:00:00 5.4 3 Norte 9 Sudoeste 0 974.4 1.7 75
2019-11-18 20:00:00 7.3 4 Norte 9 Norte 0.2 973.9 1.6 67
2019-11-18 19:00:00 9.8 3 Nordeste 11 Norte 0 973.2 1.2 55
2019-11-18 18:00:00 13.6 3 Norte 24 Oeste 0 972.7 0.6 41
2019-11-18 17:00:00 15.4 10 Noroeste 19 Noroeste 0 972.3 0.1 46
2019-11-18 16:00:00 15.2 8 Oeste 22 Oeste 0 972 -0.5 45
2019-11-18 15:00:00 14.3 7 Sudoeste 20 Oeste 0 972.1 -0.6 48
2019-11-18 14:00:00 13.7 7 Oeste 18 Oeste 0 972.2 -0.1 54
2019-11-18 13:00:00 11.9 7 Oeste 15 Oeste 0 972.5 0.4 66
2019-11-18 12:00:00 9.9 9 Oeste 18 Oeste 0 972.7 1.5 79
2019-11-18 11:00:00 6.9 4 Noroeste 14 Oeste 0 972.3 1.6 94
2019-11-18 10:00:00 4.1 4 Oeste 11 Sudoeste 0 972.1 2.1 93
2019-11-18 09:00:00 4.7 4 Sudoeste 10 Sur 0 971.2 1.6 93
2019-11-18 08:00:00 5.3 2 Sur 9 Sur 0 970.7 1.8 93
2019-11-18 07:00:00 5.8 3 Sudeste 7 Sur 0 970 1.4 93
2019-11-18 06:00:00 5.9 4 Este 17 Este 0 969.6 1.6 93
2019-11-18 05:00:00 5.9 4 Este 18 Este 0 968.9 1.3 93
2019-11-18 04:00:00 5.3 8 Nordeste 15 Nordeste 0 968.6 1 93
2019-11-18 03:00:00 4.7 4 Sudoeste 11 Este 0 968 0.6 92
2019-11-18 02:00:00 4.8 0 Calma 7 Norte 0 967.6 0.4 92
2019-11-18 01:00:00 6.7 5 Oeste 15 Oeste 0 967.6 0.4 90
2019-11-18 00:00:00 8.8 5 Oeste 12 Oeste 0 967.4 0.1 91
2019-11-17 23:00:00 9.2 6 Oeste 14 Noroeste 0 967.2 -0.2 91
2019-11-17 22:00:00 9.5 8 Oeste 13 Oeste 0 967.2 -0.5 92
2019-11-17 21:00:00 9.2 8 Norte 19 Norte 0 967.3 -1 92
2019-11-17 20:00:00 9.3 7 Norte 13 Norte 1 967.4 -1.6 91
2019-11-17 19:00:00 9.2 6 Oeste 12 Oeste 1.4 967.7 -1.7 91
2019-11-17 18:00:00 9.5 9 Oeste 14 Noroeste 1 968.3 -1.8 91
2019-11-17 17:00:00 9 4 Sudoeste 13 Oeste 0 969 -2 84
2019-11-17 16:00:00 8.9 9 Noroeste 20 Oeste 0 969.4 -2.4 83
2019-11-17 15:00:00 8.8 9 Noroeste 18 Noroeste 0 970.1 -2.8 80
2019-11-17 14:00:00 8.1 9 Noroeste 21 Noroeste 0 971 -2 82
2019-11-17 13:00:00 7.9 10 Noroeste 20 Noroeste 0 971.8 -1.2 82
2019-11-17 12:00:00 7.1 9 Noroeste 17 Oeste 0 972.9 0.1 86
2019-11-17 11:00:00 6.4 10 Oeste 24 Noroeste 0 973 0.2 87
2019-11-17 10:00:00 5.3 7 Sudoeste 18 Oeste 0 973 0 80
2019-11-17 09:00:00 1.6 0 Calma 4 Oeste 0 972.8 -0.2 89
2019-11-17 08:00:00 0 0 Calma 5 Oeste 0 972.8 -0.3 88
2019-11-17 07:00:00 -0.4 3 Noroeste 5 Noroeste 0 973 0.2 88
2019-11-17 06:00:00 -0.9 3 Este 6 Nordeste 0 973 -0.2 89
2019-11-17 05:00:00 -0.8 4 Este 7 Nordeste 0 973.1 -0.3 88
2019-11-17 04:00:00 -1.2 0 Calma 4 Sur 0 972.8 -0.8 86
2019-11-17 03:00:00 -0.6 2 Oeste 5 Norte 0 973.2 -0.2 86
2019-11-17 02:00:00 0.1 0 Calma 5 Nordeste 0 973.4 -0.4 83
2019-11-17 01:00:00 1.1 3 Noroeste 8 Oeste 0 973.6 0 79
2019-11-17 00:00:00 1.4 4 Sudoeste 9 Oeste 0 973.4 0 77
2019-11-16 23:00:00 2.3 3 Sudeste 8 Noroeste 0 973.8 0.7 74
2019-11-16 22:00:00 3.7 2 Sudoeste 8 Sur 0 973.6 0.9 66
2019-11-16 21:00:00 6.9 5 Sur 13 Oeste 0 973.4 1.1 56
2019-11-16 20:00:00 7.8 5 Sur 21 Oeste 0 973.1 1.1 53
2019-11-16 19:00:00 9.6 15 Oeste 26 Oeste 0 972.7 0.9 46
2019-11-16 18:00:00 11.9 15 Oeste 27 Noroeste 0 972.3 0.4 35
2019-11-16 17:00:00 13.3 17 Oeste 35 Noroeste 0 972 0.3 33
2019-11-16 16:00:00 13.7 22 Oeste 34 Oeste 0 971.8 -0.5 33
2019-11-16 15:00:00 13.6 17 Noroeste 31 Noroeste 0 971.9 -0.8 32
2019-11-16 14:00:00 12.3 18 Oeste 31 Oeste 0 971.7 -1.1 34
2019-11-16 13:00:00 11.8 16 Oeste 24 Oeste 0 972.3 0 38
2019-11-16 12:00:00 10.1 13 Oeste 23 Oeste 0 972.7 1.4 46
2019-11-16 11:00:00 6.8 5 Oeste 9 Oeste 0 972.8 2.3 60
2019-11-16 10:00:00 3.6 6 Sur 11 Sur 0 972.3 2.5 76
2019-11-16 09:00:00 -0.1 6 Este 12 Este 0 971.3 2.5 87
2019-11-16 08:00:00 -1.4 3 Sur 10 Este 0 970.5 2.2 89
2019-11-16 07:00:00 -1.6 3 Nordeste 7 Este 0 969.8 2.2 87
2019-11-16 06:00:00 -0.9 3 Sur 10 Noroeste 0 968.8 1.7 85
2019-11-16 05:00:00 -1 6 Noroeste 15 Noroeste 0 968.3 1.6 84
2019-11-16 04:00:00 -0.2 2 Noroeste 8 Noroeste 0 967.6 1.3 83
2019-11-16 03:00:00 0.3 3 Sudoeste 6 Sudoeste 0 967.1 1 82
2019-11-16 02:00:00 0.6 3 Oeste 11 Este 0 966.7 1 79
2019-11-16 01:00:00 1.5 4 Sudoeste 6 Sudoeste 0 966.3 1 75
2019-11-16 00:00:00 2.5 2 Sudoeste 9 Sudoeste 0 966.1 1.6 70
2019-11-15 23:00:00 2.6 6 Oeste 9 Sudoeste 0 965.7 1.9 66
2019-11-15 22:00:00 5.2 6 Sudoeste 13 Sudoeste 0 965.3 1.9 58
2019-11-15 21:00:00 5.7 7 Sudoeste 14 Sudoeste 0 964.5 1.4 54
2019-11-15 20:00:00 6.7 5 Sur 11 Norte 0 963.8 1 51
2019-11-15 19:00:00 7.9 5 Norte 9 Norte 0 963.4 0.9 48
2019-11-15 18:00:00 11.1 6 Norte 15 Norte 0 963.1 0.6 37
2019-11-15 17:00:00 11.7 8 Norte 26 Noroeste 0 962.8 0.3 34
2019-11-15 16:00:00 12.2 12 Oeste 28 Oeste 0 962.5 -0.7 32
2019-11-15 15:00:00 13.3 15 Noroeste 32 Oeste 0 962.5 -1.3 33
2019-11-15 14:00:00 13.2 16 Oeste 31 Oeste 0 962.5 -1.2 34
2019-11-15 13:00:00 12 17 Oeste 31 Oeste 0 963.2 -0.5 38
2019-11-15 12:00:00 10.3 14 Oeste 25 Sudoeste 0 963.8 0.6 46
2019-11-15 11:00:00 8 12 Oeste 19 Oeste 0 963.7 1.2 55
2019-11-15 10:00:00 6.4 6 Sudoeste 14 Sudoeste 0 963.7 1.5 63
2019-11-15 09:00:00 2.1 3 Noroeste 8 Norte 0 963.2 1.5 81
2019-11-15 08:00:00 3 2 Sudoeste 11 Sudoeste 0 962.5 1.1 74
2019-11-15 07:00:00 4.3 6 Sur 13 Oeste 0 962.2 1 68
2019-11-15 06:00:00 4.3 2 Sur 14 Oeste 0 961.7 0.6 68
2019-11-15 05:00:00 5.2 5 Sur 17 Sudoeste 0 961.4 0.3 63
2019-11-15 04:00:00 6.2 10 Oeste 26 Oeste 0 961.2 0.1 59
2019-11-15 03:00:00 6.8 9 Oeste 35 Noroeste 0 961.1 0.3 58
2019-11-15 02:00:00 7.3 20 Oeste 42 Oeste 0 961.1 0.3 57
2019-11-15 01:00:00 8.8 17 Oeste 37 Oeste 0 961.1 0.6 52
2019-11-15 00:00:00 9 28 Oeste 42 Noroeste 0 960.8 1.6 53
2019-11-14 23:00:00 9 17 Oeste 35 Noroeste 0 960.8 1.9 56
2019-11-14 22:00:00 9.6 21 Oeste 53 Noroeste 0 960.5 1.2 54
2019-11-14 21:00:00 9.7 24 Oeste 60 Oeste 0 959.2 0.1 55
2019-11-14 20:00:00 10.3 40 Oeste 63 Oeste 0 958.9 -0.1 52
2019-11-14 19:00:00 10.1 37 Oeste 62 Oeste 0 959.3 0 59
2019-11-14 18:00:00 9.9 37 Oeste 66 Oeste 0 959.1 -0.5 56
2019-11-14 17:00:00 10.6 38 Oeste 77 Oeste 0 959 -1.3 52
2019-11-14 16:00:00 11.8 44 Oeste 68 Oeste 0 959.3 -1.8 41
2019-11-14 15:00:00 12.7 43 Oeste 66 Oeste 0 959.6 -2.6 36
2019-11-14 14:00:00 12.7 43 Oeste 66 Oeste 0 960.3 -2.8 40
2019-11-14 13:00:00 12.5 38 Oeste 58 Noroeste 0 961.1 -1.9 44
2019-11-14 12:00:00 11.9 32 Oeste 46 Oeste 0 962.2 -0.3 48
2019-11-14 11:00:00 10.1 19 Oeste 27 Oeste 0 963.1 1.6 68
2019-11-14 10:00:00 9.1 8 Oeste 21 Noroeste 0 963 1 72
2019-11-14 09:00:00 10.5 19 Noroeste 49 Oeste 0 962.5 -0.3 73
2019-11-14 08:00:00 10.8 27 Oeste 55 Oeste 0 961.5 -2 79
2019-11-14 07:00:00 10.5 15 Oeste 41 Oeste 0 962 -2.5 72
2019-11-14 06:00:00 9.6 18 Oeste 42 Oeste 0 962.8 -2.3 74
2019-11-14 05:00:00 9.5 23 Oeste 45 Oeste 0 963.5 -2.6 71
2019-11-14 04:00:00 10 23 Oeste 43 Oeste 0 964.5 -2.2 67
2019-11-14 03:00:00 10.5 20 Oeste 48 Oeste 0 965.1 -1.9 66
2019-11-14 02:00:00 10.9 22 Oeste 41 Oeste 0 966.1 -1.6 70
2019-11-14 01:00:00 11.2 15 Oeste 32 Oeste 0 966.7 -1.3 71
2019-11-14 00:00:00 12.4 18 Oeste 35 Sudoeste 0 967 -1.3 68
2019-11-13 23:00:00 13.1 16 Oeste 27 Oeste 0 967.7 -0.8 67
2019-11-13 22:00:00 13.7 15 Oeste 25 Oeste 0 968 -0.8 65
2019-11-13 21:00:00 14.4 13 Oeste 25 Sudoeste 0 968.3 0.1 60
2019-11-13 20:00:00 15.9 13 Oeste 27 Sudoeste 0 968.5 0.2 54
2019-11-13 19:00:00 16.3 9 Oeste 39 Oeste 0 968.8 0.6 53
2019-11-13 18:00:00 18.2 23 Oeste 41 Oeste 0 968.2 0.4 45
2019-11-13 17:00:00 19.6 24 Oeste 37 Oeste 0 968.3 0.6 38
2019-11-13 16:00:00 20.7 21 Oeste 36 Oeste 0 968.2 0 37
2019-11-13 15:00:00 21.2 20 Oeste 39 Oeste 0 967.8 -0.3 39
2019-11-13 14:00:00 20.9 19 Oeste 40 Oeste 0 967.7 0.2 38
2019-11-13 13:00:00 20.2 24 Oeste 40 Noroeste 0 968.2 1.4 45
2019-11-13 12:00:00 18.8 27 Oeste 47 Oeste 0 968.1 2.3 52
2019-11-13 11:00:00 17.5 26 Oeste 46 Oeste 0 967.5 2.1 65
2019-11-13 10:00:00 15.7 23 Oeste 47 Oeste 0 966.8 1.9 75
2019-11-13 09:00:00 13.9 28 Oeste 45 Oeste 0 965.8 0.5 84
2019-11-13 08:00:00 14 20 Oeste 59 Oeste 0 965.4 0.3 83
2019-11-13 07:00:00 13.8 33 Oeste 60 Oeste 0 964.9 -0.4 84
2019-11-13 06:00:00 13.7 29 Oeste 51 Oeste 0 965.3 -0.3 82
2019-11-13 05:00:00 13.2 24 Oeste 45 Oeste 0 965.1 -1.4 84
2019-11-13 04:00:00 13.3 27 Oeste 53 Oeste 0 965.3 -1.7 79
2019-11-13 03:00:00 13.2 28 Oeste 50 Oeste 0 965.6 -2.6 75
2019-11-13 02:00:00 13.3 28 Oeste 48 Oeste 0 966.5 -2.3 77
2019-11-13 01:00:00 13.1 31 Oeste 46 Oeste 0 967 -2 76
2019-11-13 00:00:00 13 23 Oeste 40 Oeste 0 968.2 -1.1 72
2019-11-12 23:00:00 13.4 22 Oeste 37 Oeste 0 968.8 -0.9 68
2019-11-12 22:00:00 12.2 11 Oeste 26 Oeste 0 969 -1.2 65
2019-11-12 21:00:00 13.3 19 Oeste 32 Oeste 0 969.3 -1 61
2019-11-12 20:00:00 12.8 10 Oeste 19 Oeste 0 969.7 -1.2 57
2019-11-12 19:00:00 13.2 11 Oeste 22 Oeste 0 970.2 -1.1 52
2019-11-12 18:00:00 14.2 16 Oeste 27 Oeste 0 970.3 -1.5 48
2019-11-12 17:00:00 15.2 14 Oeste 31 Oeste 0 970.9 -1.7 52
2019-11-12 16:00:00 14.7 13 Oeste 28 Oeste 0 971.3 -2.4 55
2019-11-12 15:00:00 14.7 13 Oeste 24 Oeste 0 971.8 -2.5 57
2019-11-12 14:00:00 14.5 9 Oeste 25 Oeste 0 972.6 -1.5 55
2019-11-12 13:00:00 13.7 5 Sur 14 Sudoeste 0 973.7 -0.3 57
2019-11-12 12:00:00 11.8 3 Este 11 Oeste 0 974.3 0.1 61
2019-11-12 11:00:00 9.4 5 Este -- -- -- 974.1 1.1 74
2019-11-12 10:00:00 7 6 Este 14 Nordeste 0 974 0.9 88
2019-11-12 09:00:00 4.7 4 Este 11 Nordeste 0 974.2 1.2 92
2019-11-12 08:00:00 4 6 Este 11 Nordeste 0 973 -0.7 92
2019-11-12 07:00:00 3.6 5 Este 10 Este 0 973.1 -0.7 92
2019-11-12 06:00:00 3.8 5 Nordeste 8 Este 0 973 -1.1 92
2019-11-12 05:00:00 3.9 3 Este 5 Este 0 973.7 -1.1 92
2019-11-12 04:00:00 4.5 3 Este 8 Norte 0 973.8 -0.7 93
2019-11-12 03:00:00 4.9 3 Nordeste 9 Nordeste 0 974.1 -0.3 93
2019-11-12 02:00:00 4.4 4 Nordeste 8 Este 0 974.8 0.7 92
2019-11-12 01:00:00 5.4 3 Este 9 Nordeste 0 974.5 0.4 92
2019-11-12 00:00:00 6.3 3 Este 11 Este 0 974.4 0.7 92